sensor_id;sensor_type;location;lat;lon;timestamp;pressure;altitude;pressure_sealevel;temperature;humidity
47104;BME280;32853;52.164;5.400;2023-02-28T00:01:30;103134.22;;;4.94;100.00
47104;BME280;32853;52.164;5.400;2023-02-28T00:03:59;103082.88;;;4.76;100.00
47104;BME280;32853;52.164;5.400;2023-02-28T00:06:28;103071.38;;;4.62;100.00
47104;BME280;32853;52.164;5.400;2023-02-28T00:08:54;103113.31;;;4.85;100.00
47104;BME280;32853;52.164;5.400;2023-02-28T00:11:29;103146.41;;;4.98;100.00
47104;BME280;32853;52.164;5.400;2023-02-28T00:14:01;103143.13;;;5.07;100.00
47104;BME280;32853;52.164;5.400;2023-02-28T00:16:34;103082.97;;;4.79;100.00
47104;BME280;32853;52.164;5.400;2023-02-28T00:18:59;103098.50;;;4.79;100.00
47104;BME280;32853;52.164;5.400;2023-02-28T00:21:33;103131.72;;;4.99;100.00
47104;BME280;32853;52.164;5.400;2023-02-28T00:23:58;103118.44;;;4.82;100.00
47104;BME280;32853;52.164;5.400;2023-02-28T00:26:27;103139.78;;;5.11;100.00
47104;BME280;32853;52.164;5.400;2023-02-28T00:28:53;103064.50;;;4.64;100.00
47104;BME280;32853;52.164;5.400;2023-02-28T00:31:18;103132.53;;;4.96;100.00
47104;BME280;32853;52.164;5.400;2023-02-28T00:33:48;103111.03;;;5.00;100.00
47104;BME280;32853;52.164;5.400;2023-02-28T00:36:13;103121.47;;;5.05;100.00
47104;BME280;32853;52.164;5.400;2023-02-28T00:38:40;103027.44;;;4.68;100.00
47104;BME280;32853;52.164;5.400;2023-02-28T00:41:07;103110.97;;;4.99;100.00
47104;BME280;32853;52.164;5.400;2023-02-28T00:43:36;103131.28;;;5.19;100.00
47104;BME280;32853;52.164;5.400;2023-02-28T00:46:03;103104.91;;;4.98;100.00
47104;BME280;32853;52.164;5.400;2023-02-28T00:48:28;103136.19;;;5.06;100.00
47104;BME280;32853;52.164;5.400;2023-02-28T00:50:54;103110.16;;;5.00;100.00
47104;BME280;32853;52.164;5.400;2023-02-28T00:53:19;103097.19;;;5.00;100.00
47104;BME280;32853;52.164;5.400;2023-02-28T00:55:45;103107.56;;;5.00;100.00
47104;BME280;32853;52.164;5.400;2023-02-28T00:58:33;103118.16;;;5.10;100.00
47104;BME280;32853;52.164;5.400;2023-02-28T01:00:58;103136.50;;;5.21;100.00
47104;BME280;32853;52.164;5.400;2023-02-28T01:03:23;103118.91;;;5.06;100.00
47104;BME280;32853;52.164;5.400;2023-02-28T01:05:49;103126.03;;;5.16;100.00
47104;BME280;32853;52.164;5.400;2023-02-28T01:08:14;103067.38;;;4.78;100.00
47104;BME280;32853;52.164;5.400;2023-02-28T01:10:40;103083.22;;;4.93;100.00
47104;BME280;32853;52.164;5.400;2023-02-28T01:13:06;103049.88;;;4.66;100.00
47104;BME280;32853;52.164;5.400;2023-02-28T01:15:31;103126.47;;;5.41;100.00
47104;BME280;32853;52.164;5.400;2023-02-28T01:17:57;103114.03;;;5.21;100.00
47104;BME280;32853;52.164;5.400;2023-02-28T01:20:23;103129.69;;;5.26;100.00
47104;BME280;32853;52.164;5.400;2023-02-28T01:22:56;103135.91;;;5.36;100.00
47104;BME280;32853;52.164;5.400;2023-02-28T01:25:24;103125.44;;;5.31;100.00
47104;BME280;32853;52.164;5.400;2023-02-28T01:27:49;103112.25;;;5.20;100.00
47104;BME280;32853;52.164;5.400;2023-02-28T01:30:14;103120.53;;;5.45;100.00
47104;BME280;32853;52.164;5.400;2023-02-28T01:32:40;103108.78;;;5.20;100.00
47104;BME280;32853;52.164;5.400;2023-02-28T01:35:05;103118.66;;;5.39;100.00
47104;BME280;32853;52.164;5.400;2023-02-28T01:37:31;103126.38;;;5.35;100.00
47104;BME280;32853;52.164;5.400;2023-02-28T01:39:57;103115.91;;;5.30;100.00
47104;BME280;32853;52.164;5.400;2023-02-28T01:42:22;103101.97;;;5.23;100.00
47104;BME280;32853;52.164;5.400;2023-02-28T01:45:18;103115.03;;;5.30;100.00
47104;BME280;32853;52.164;5.400;2023-02-28T01:47:45;103128.19;;;5.39;100.00
47104;BME280;32853;52.164;5.400;2023-02-28T01:50:23;103070.69;;;5.16;100.00
47104;BME280;32853;52.164;5.400;2023-02-28T01:52:51;103091.56;;;5.22;100.00
47104;BME280;32853;52.164;5.400;2023-02-28T01:55:20;103078.72;;;5.31;100.00
47104;BME280;32853;52.164;5.400;2023-02-28T01:57:54;103060.47;;;5.25;100.00
47104;BME280;32853;52.164;5.400;2023-02-28T02:00:23;103112.88;;;5.54;100.00
47104;BME280;32853;52.164;5.400;2023-02-28T02:02:51;103102.41;;;5.48;100.00
47104;BME280;32853;52.164;5.400;2023-02-28T02:05:28;103096.25;;;5.43;100.00
47104;BME280;32853;52.164;5.400;2023-02-28T02:08:00;103014.13;;;4.96;100.00
47104;BME280;32853;52.164;5.400;2023-02-28T02:10:32;103095.25;;;5.35;100.00
47104;BME280;32853;52.164;5.400;2023-02-28T02:24:02;103101.31;;;5.35;100.00
47104;BME280;32853;52.164;5.400;2023-02-28T02:26:53;103095.59;;;5.54;100.00
47104;BME280;32853;52.164;5.400;2023-02-28T02:29:59;103086.28;;;5.66;100.00
47104;BME280;32853;52.164;5.400;2023-02-28T02:37:38;103096.19;;;5.40;100.00
47104;BME280;32853;52.164;5.400;2023-02-28T02:43:22;103027.22;;;5.03;100.00
47104;BME280;32853;52.164;5.400;2023-02-28T02:46:13;103075.41;;;5.38;100.00
47104;BME280;32853;52.164;5.400;2023-02-28T02:48:47;103039.59;;;5.17;100.00
47104;BME280;32853;52.164;5.400;2023-02-28T02:51:25;103016.09;;;5.10;100.00
47104;BME280;32853;52.164;5.400;2023-02-28T02:56:33;103076.38;;;5.43;100.00
47104;BME280;32853;52.164;5.400;2023-02-28T02:59:03;103081.00;;;5.63;100.00
47104;BME280;32853;52.164;5.400;2023-02-28T03:01:31;103012.56;;;5.05;100.00
47104;BME280;32853;52.164;5.400;2023-02-28T03:04:03;103106.88;;;5.55;100.00
47104;BME280;32853;52.164;5.400;2023-02-28T03:06:29;102975.06;;;4.87;100.00
47104;BME280;32853;52.164;5.400;2023-02-28T03:09:09;103065.19;;;5.47;100.00
47104;BME280;32853;52.164;5.400;2023-02-28T03:11:36;103072.13;;;5.48;100.00
47104;BME280;32853;52.164;5.400;2023-02-28T03:16:36;103090.44;;;5.56;100.00
47104;BME280;32853;52.164;5.400;2023-02-28T03:19:25;103098.94;;;5.47;100.00
47104;BME280;32853;52.164;5.400;2023-02-28T03:22:00;103090.44;;;5.56;100.00
47104;BME280;32853;52.164;5.400;2023-02-28T03:30:55;103070.47;;;5.53;100.00
47104;BME280;32853;52.164;5.400;2023-02-28T03:33:48;103005.41;;;4.91;100.00
47104;BME280;32853;52.164;5.400;2023-02-28T03:36:22;103097.31;;;5.54;100.00
47104;BME280;32853;52.164;5.400;2023-02-28T03:39:12;103061.56;;;5.38;100.00
47104;BME280;32853;52.164;5.400;2023-02-28T03:41:48;103058.06;;;5.36;100.00
47104;BME280;32853;52.164;5.400;2023-02-28T03:44:32;103083.44;;;5.52;100.00
47104;BME280;32853;52.164;5.400;2023-02-28T03:47:11;103106.88;;;5.57;100.00
47104;BME280;32853;52.164;5.400;2023-02-28T03:49:46;103115.53;;;5.56;100.00
47104;BME280;32853;52.164;5.400;2023-02-28T03:52:14;103068.13;;;5.19;100.00
47104;BME280;32853;52.164;5.400;2023-02-28T03:54:45;103104.81;;;5.39;100.00
47104;BME280;32853;52.164;5.400;2023-02-28T03:57:58;103124.25;;;5.12;100.00
47104;BME280;32853;52.164;5.400;2023-02-28T04:03:01;103081.72;;;5.06;100.00
47104;BME280;32853;52.164;5.400;2023-02-28T04:05:32;103105.72;;;5.41;100.00
47104;BME280;32853;52.164;5.400;2023-02-28T04:08:07;103069.81;;;5.15;100.00
47104;BME280;32853;52.164;5.400;2023-02-28T04:10:38;103102.22;;;5.37;100.00
47104;BME280;32853;52.164;5.400;2023-02-28T04:13:10;103116.25;;;5.48;100.00
47104;BME280;32853;52.164;5.400;2023-02-28T04:15:36;103114.41;;;5.43;100.00
47104;BME280;32853;52.164;5.400;2023-02-28T04:18:02;103103.16;;;5.42;100.00
47104;BME280;32853;52.164;5.400;2023-02-28T04:20:59;103111.31;;;5.64;100.00
47104;BME280;32853;52.164;5.400;2023-02-28T04:23:24;103109.38;;;5.52;100.00
47104;BME280;32853;52.164;5.400;2023-02-28T04:25:50;103112.66;;;5.42;100.00
47104;BME280;32853;52.164;5.400;2023-02-28T04:28:16;103119.72;;;5.49;100.00
47104;BME280;32853;52.164;5.400;2023-02-28T04:30:41;103045.97;;;4.88;100.00
47104;BME280;32853;52.164;5.400;2023-02-28T04:33:07;103067.94;;;5.08;100.00
47104;BME280;32853;52.164;5.400;2023-02-28T04:35:46;103107.28;;;5.31;100.00
47104;BME280;32853;52.164;5.400;2023-02-28T04:38:16;103128.78;;;5.24;100.00
47104;BME280;32853;52.164;5.400;2023-02-28T04:40:42;103096.19;;;4.93;100.00
47104;BME280;32853;52.164;5.400;2023-02-28T04:43:10;103123.88;;;4.94;95.19
47104;BME280;32853;52.164;5.400;2023-02-28T04:45:36;103141.22;;;4.98;96.12
47104;BME280;32853;52.164;5.400;2023-02-28T04:48:01;103129.91;;;4.93;96.06
47104;BME280;32853;52.164;5.400;2023-02-28T04:50:26;103131.84;;;5.05;95.16
47104;BME280;32853;52.164;5.400;2023-02-28T04:52:58;103120.53;;;5.00;96.80
47104;BME280;32853;52.164;5.400;2023-02-28T04:55:23;103128.97;;;4.89;97.00
47104;BME280;32853;52.164;5.400;2023-02-28T04:57:49;103105.63;;;4.88;97.15
47104;BME280;32853;52.164;5.400;2023-02-28T05:00:17;103129.72;;;4.85;98.18
47104;BME280;32853;52.164;5.400;2023-02-28T05:02:43;103127.28;;;4.91;97.26
47104;BME280;32853;52.164;5.400;2023-02-28T05:05:09;103127.44;;;4.99;95.94
47104;BME280;32853;52.164;5.400;2023-02-28T05:07:34;103106.25;;;4.78;96.97
47104;BME280;32853;52.164;5.400;2023-02-28T05:10:00;103118.47;;;4.83;100.00
47104;BME280;32853;52.164;5.400;2023-02-28T05:12:25;103111.34;;;4.73;100.00
47104;BME280;32853;52.164;5.400;2023-02-28T05:14:53;103124.97;;;4.64;100.00
47104;BME280;32853;52.164;5.400;2023-02-28T05:17:25;103121.41;;;4.58;100.00
47104;BME280;32853;52.164;5.400;2023-02-28T05:19:57;103013.94;;;4.00;100.00
47104;BME280;32853;52.164;5.400;2023-02-28T05:22:22;103101.94;;;4.37;100.00
47104;BME280;32853;52.164;5.400;2023-02-28T05:24:47;103135.72;;;4.42;100.00
47104;BME280;32853;52.164;5.400;2023-02-28T05:27:17;103141.34;;;4.62;100.00
47104;BME280;32853;52.164;5.400;2023-02-28T05:29:45;103148.88;;;4.51;100.00
47104;BME280;32853;52.164;5.400;2023-02-28T05:32:11;103113.78;;;4.26;100.00
47104;BME280;32853;52.164;5.400;2023-02-28T05:34:47;103139.31;;;4.49;100.00
47104;BME280;32853;52.164;5.400;2023-02-28T05:37:21;103106.94;;;4.30;100.00
47104;BME280;32853;52.164;5.400;2023-02-28T05:40:03;103128.66;;;4.35;100.00
47104;BME280;32853;52.164;5.400;2023-02-28T05:42:40;103136.75;;;4.50;100.00
47104;BME280;32853;52.164;5.400;2023-02-28T05:45:19;103145.38;;;4.49;100.00
47104;BME280;32853;52.164;5.400;2023-02-28T05:47:46;103070.16;;;4.07;100.00
47104;BME280;32853;52.164;5.400;2023-02-28T05:50:11;103121.88;;;4.42;100.00
47104;BME280;32853;52.164;5.400;2023-02-28T05:52:53;103091.00;;;4.12;100.00
47104;BME280;32853;52.164;5.400;2023-02-28T05:55:19;103112.94;;;4.27;100.00
47104;BME280;32853;52.164;5.400;2023-02-28T05:57:58;103147.13;;;4.50;100.00
47104;BME280;32853;52.164;5.400;2023-02-28T06:00:24;103137.31;;;4.35;100.00
47104;BME280;32853;52.164;5.400;2023-02-28T06:02:50;103145.16;;;4.40;100.00
47104;BME280;32853;52.164;5.400;2023-02-28T06:05:17;103133.13;;;4.42;100.00
47104;BME280;32853;52.164;5.400;2023-02-28T06:07:55;103084.19;;;4.15;100.00
47104;BME280;32853;52.164;5.400;2023-02-28T06:10:20;103136.41;;;4.33;100.00
47104;BME280;32853;52.164;5.400;2023-02-28T06:12:45;103099.66;;;4.12;100.00
47104;BME280;32853;52.164;5.400;2023-02-28T06:15:12;103084.88;;;4.08;100.00
47104;BME280;32853;52.164;5.400;2023-02-28T06:17:40;103145.22;;;4.43;100.00
47104;BME280;32853;52.164;5.400;2023-02-28T06:20:06;103139.13;;;4.40;100.00
47104;BME280;32853;52.164;5.400;2023-02-28T06:22:31;103050.84;;;3.91;100.00
47104;BME280;32853;52.164;5.400;2023-02-28T06:24:58;103127.00;;;4.38;100.00
47104;BME280;32853;52.164;5.400;2023-02-28T06:27:35;103124.41;;;4.38;100.00
47104;BME280;32853;52.164;5.400;2023-02-28T06:30:01;103104.06;;;4.16;100.00
47104;BME280;32853;52.164;5.400;2023-02-28T06:32:26;103107.50;;;4.17;100.00
47104;BME280;32853;52.164;5.400;2023-02-28T06:34:59;103129.31;;;4.26;100.00
47104;BME280;32853;52.164;5.400;2023-02-28T06:37:26;103129.59;;;4.38;100.00
47104;BME280;32853;52.164;5.400;2023-02-28T06:39:52;103120.59;;;4.21;100.00
47104;BME280;32853;52.164;5.400;2023-02-28T06:42:25;103133.38;;;4.15;100.00
47104;BME280;32853;52.164;5.400;2023-02-28T06:44:57;103143.16;;;3.91;100.00
47104;BME280;32853;52.164;5.400;2023-02-28T06:47:23;103073.75;;;3.41;100.00
47104;BME280;32853;52.164;5.400;2023-02-28T06:49:54;103124.19;;;3.92;100.00
47104;BME280;32853;52.164;5.400;2023-02-28T06:52:23;103069.38;;;3.39;100.00
47104;BME280;32853;52.164;5.400;2023-02-28T06:54:49;103122.28;;;3.50;100.00
47104;BME280;32853;52.164;5.400;2023-02-28T06:57:28;103146.00;;;3.67;100.00
47104;BME280;32853;52.164;5.400;2023-02-28T07:00:11;103142.19;;;3.87;100.00
47104;BME280;32853;52.164;5.400;2023-02-28T07:02:37;103125.94;;;3.93;100.00
47104;BME280;32853;52.164;5.400;2023-02-28T07:05:04;103140.72;;;3.98;100.00
47104;BME280;32853;52.164;5.400;2023-02-28T07:07:29;103122.81;;;3.71;100.00
47104;BME280;32853;52.164;5.400;2023-02-28T07:09:55;103148.16;;;3.85;100.00
47104;BME280;32853;52.164;5.400;2023-02-28T07:12:24;103100.34;;;3.36;100.00
47104;BME280;32853;52.164;5.400;2023-02-28T07:14:59;103120.69;;;3.55;100.00
47104;BME280;32853;52.164;5.400;2023-02-28T07:17:24;103142.03;;;3.81;100.00
47104;BME280;32853;52.164;5.400;2023-02-28T07:19:50;103098.72;;;3.74;100.00
47104;BME280;32853;52.164;5.400;2023-02-28T07:22:15;103149.06;;;3.52;100.00
47104;BME280;32853;52.164;5.400;2023-02-28T07:24:41;103102.72;;;3.28;100.00
47104;BME280;32853;52.164;5.400;2023-02-28T07:27:12;103107.59;;;3.49;100.00
47104;BME280;32853;52.164;5.400;2023-02-28T07:29:57;103158.19;;;3.71;100.00
47104;BME280;32853;52.164;5.400;2023-02-28T07:32:22;103147.63;;;3.63;100.00
47104;BME280;32853;52.164;5.400;2023-02-28T07:34:54;103127.16;;;3.72;100.00
47104;BME280;32853;52.164;5.400;2023-02-28T07:37:24;103163.13;;;3.96;100.00
47104;BME280;32853;52.164;5.400;2023-02-28T07:39:53;103072.50;;;3.60;100.00
47104;BME280;32853;52.164;5.400;2023-02-28T07:42:18;103121.94;;;3.71;100.00
47104;BME280;32853;52.164;5.400;2023-02-28T07:44:43;103167.47;;;3.64;100.00
47104;BME280;32853;52.164;5.400;2023-02-28T07:47:09;103161.09;;;3.85;100.00
47104;BME280;32853;52.164;5.400;2023-02-28T07:49:52;103150.88;;;3.89;100.00
47104;BME280;32853;52.164;5.400;2023-02-28T07:52:18;103096.94;;;3.71;100.00
47104;BME280;32853;52.164;5.400;2023-02-28T07:54:43;103168.19;;;4.26;100.00
47104;BME280;32853;52.164;5.400;2023-02-28T07:57:30;103157.81;;;4.26;100.00
47104;BME280;32853;52.164;5.400;2023-02-28T07:59:55;103148.38;;;4.30;100.00
47104;BME280;32853;52.164;5.400;2023-02-28T08:02:27;103165.94;;;4.42;100.00
47104;BME280;32853;52.164;5.400;2023-02-28T08:04:54;103085.97;;;3.82;100.00
47104;BME280;32853;52.164;5.400;2023-02-28T08:07:23;103175.75;;;4.19;100.00
47104;BME280;32853;52.164;5.400;2023-02-28T08:09:55;103116.47;;;3.59;100.00
47104;BME280;32853;52.164;5.400;2023-02-28T08:12:24;103137.88;;;3.88;100.00
47104;BME280;32853;52.164;5.400;2023-02-28T08:14:50;103151.19;;;4.01;100.00
47104;BME280;32853;52.164;5.400;2023-02-28T08:17:19;103157.94;;;3.96;100.00
47104;BME280;32853;52.164;5.400;2023-02-28T08:19:49;103179.88;;;3.76;100.00
47104;BME280;32853;52.164;5.400;2023-02-28T08:22:21;103175.22;;;3.97;100.00
47104;BME280;32853;52.164;5.400;2023-02-28T08:24:48;103169.97;;;3.94;100.00
47104;BME280;32853;52.164;5.400;2023-02-28T08:27:17;103193.78;;;4.14;100.00
47104;BME280;32853;52.164;5.400;2023-02-28T08:29:45;103124.25;;;3.95;100.00
47104;BME280;32853;52.164;5.400;2023-02-28T08:32:11;103181.13;;;4.26;100.00
47104;BME280;32853;52.164;5.400;2023-02-28T08:34:39;103039.75;;;3.61;100.00
47104;BME280;32853;52.164;5.400;2023-02-28T08:37:05;103179.00;;;4.46;100.00
47104;BME280;32853;52.164;5.400;2023-02-28T08:39:34;103176.00;;;4.29;100.00
47104;BME280;32853;52.164;5.400;2023-02-28T08:41:59;103169.06;;;3.92;100.00
47104;BME280;32853;52.164;5.400;2023-02-28T08:44:24;103187.78;;;4.17;100.00
47104;BME280;32853;52.164;5.400;2023-02-28T08:46:50;103169.28;;;4.36;100.00
47104;BME280;32853;52.164;5.400;2023-02-28T08:49:27;103121.53;;;4.25;100.00
47104;BME280;32853;52.164;5.400;2023-02-28T08:51:53;103177.91;;;4.76;100.00
47104;BME280;32853;52.164;5.400;2023-02-28T08:54:22;103169.97;;;4.66;100.00
47104;BME280;32853;52.164;5.400;2023-02-28T08:56:49;103159.72;;;4.73;100.00
47104;BME280;32853;52.164;5.400;2023-02-28T08:59:15;103169.09;;;4.66;100.00
47104;BME280;32853;52.164;5.400;2023-02-28T09:01:57;103176.31;;;4.81;100.00
47104;BME280;32853;52.164;5.400;2023-02-28T09:04:23;103165.25;;;4.88;100.00
47104;BME280;32853;52.164;5.400;2023-02-28T09:06:48;103143.94;;;4.62;100.00
47104;BME280;32853;52.164;5.400;2023-02-28T09:09:14;103155.63;;;4.84;100.00
47104;BME280;32853;52.164;5.400;2023-02-28T09:11:40;103180.91;;;4.94;100.00
47104;BME280;32853;52.164;5.400;2023-02-28T09:14:06;103167.13;;;4.96;100.00
47104;BME280;32853;52.164;5.400;2023-02-28T09:16:35;103181.41;;;5.18;100.00
47104;BME280;32853;52.164;5.400;2023-02-28T09:19:03;103182.50;;;5.30;100.00
47104;BME280;32853;52.164;5.400;2023-02-28T09:21:29;103096.06;;;4.87;100.00
47104;BME280;32853;52.164;5.400;2023-02-28T09:23:55;103184.34;;;5.35;100.00
47104;BME280;32853;52.164;5.400;2023-02-28T09:26:24;103156.53;;;5.30;100.00
47104;BME280;32853;52.164;5.400;2023-02-28T09:28:51;103181.13;;;5.48;100.00
47104;BME280;32853;52.164;5.400;2023-02-28T09:31:21;103176.06;;;5.54;96.51
47104;BME280;32853;52.164;5.400;2023-02-28T09:33:48;103187.41;;;5.61;95.70
47104;BME280;32853;52.164;5.400;2023-02-28T09:36:13;103186.41;;;5.53;82.04
47104;BME280;32853;52.164;5.400;2023-02-28T09:38:39;103178.94;;;5.71;73.47
47104;BME280;32853;52.164;5.400;2023-02-28T09:41:26;103173.19;;;5.88;69.21
47104;BME280;32853;52.164;5.400;2023-02-28T09:43:56;103190.22;;;5.72;66.73
47104;BME280;32853;52.164;5.400;2023-02-28T09:46:38;103101.19;;;5.29;63.13
47104;BME280;32853;52.164;5.400;2023-02-28T09:49:17;103191.06;;;5.71;63.47
47104;BME280;32853;52.164;5.400;2023-02-28T09:52:04;103198.50;;;5.52;58.99
47104;BME280;32853;52.164;5.400;2023-02-28T09:54:34;103148.41;;;5.57;59.91
47104;BME280;32853;52.164;5.400;2023-02-28T09:57:10;103196.69;;;5.94;60.11
47104;BME280;32853;52.164;5.400;2023-02-28T09:59:54;103195.63;;;5.86;56.76
47104;BME280;32853;52.164;5.400;2023-02-28T10:05:20;103134.81;;;5.23;54.66
47104;BME280;32853;52.164;5.400;2023-02-28T10:10:48;103187.53;;;6.17;54.89
47104;BME280;32853;52.164;5.400;2023-02-28T10:13:20;103184.09;;;6.18;55.20
47104;BME280;32853;52.164;5.400;2023-02-28T10:15:52;103172.91;;;6.22;53.83
47104;BME280;32853;52.164;5.400;2023-02-28T10:18:24;103189.47;;;6.29;52.96
47104;BME280;32853;52.164;5.400;2023-02-28T10:20:53;103175.69;;;6.33;54.49
47104;BME280;32853;52.164;5.400;2023-02-28T10:23:32;103171.44;;;6.39;54.33
47104;BME280;32853;52.164;5.400;2023-02-28T10:26:13;103175.25;;;6.64;53.61
47104;BME280;32853;52.164;5.400;2023-02-28T10:28:41;103177.19;;;6.78;51.60
47104;BME280;32853;52.164;5.400;2023-02-28T10:31:11;103151.19;;;6.79;52.89
47104;BME280;32853;52.164;5.400;2023-02-28T10:33:39;103160.84;;;6.88;51.51
47104;BME280;32853;52.164;5.400;2023-02-28T10:36:21;103109.44;;;6.65;51.65
47104;BME280;32853;52.164;5.400;2023-02-28T10:38:48;103159.84;;;6.77;49.86
47104;BME280;32853;52.164;5.400;2023-02-28T10:41:27;103167.06;;;7.01;50.21
47104;BME280;32853;52.164;5.400;2023-02-28T10:47:00;103164.75;;;7.23;49.48
47104;BME280;32853;52.164;5.400;2023-02-28T10:49:30;103165.00;;;7.48;49.38
47104;BME280;32853;52.164;5.400;2023-02-28T10:51:59;103171.19;;;7.59;48.22
47104;BME280;32853;52.164;5.400;2023-02-28T10:54:47;103155.34;;;7.38;47.52
47104;BME280;32853;52.164;5.400;2023-02-28T10:57:17;103162.63;;;7.74;47.54
47104;BME280;32853;52.164;5.400;2023-02-28T10:59:43;103159.78;;;7.46;46.90
47104;BME280;32853;52.164;5.400;2023-02-28T11:02:32;103156.41;;;7.55;47.26
47104;BME280;32853;52.164;5.400;2023-02-28T11:04:58;103141.44;;;7.36;47.85
47104;BME280;32853;52.164;5.400;2023-02-28T11:07:25;102995.44;;;6.28;47.51
47104;BME280;32853;52.164;5.400;2023-02-28T11:09:52;103137.94;;;7.32;47.74
47104;BME280;32853;52.164;5.400;2023-02-28T11:12:27;103136.34;;;7.45;46.68
47104;BME280;32853;52.164;5.400;2023-02-28T11:15:06;103083.50;;;7.55;46.63
47104;BME280;32853;52.164;5.400;2023-02-28T11:17:42;103146.91;;;7.63;46.91
47104;BME280;32853;52.164;5.400;2023-02-28T11:20:20;103118.44;;;7.81;46.27
47104;BME280;32853;52.164;5.400;2023-02-28T11:22:55;103144.72;;;8.12;46.23
47104;BME280;32853;52.164;5.400;2023-02-28T11:25:30;103127.44;;;8.31;46.19
47104;BME280;32853;52.164;5.400;2023-02-28T11:28:04;103144.97;;;8.46;46.45
47104;BME280;32853;52.164;5.400;2023-02-28T11:30:35;103137.09;;;8.38;44.91
47104;BME280;32853;52.164;5.400;2023-02-28T11:33:21;103040.41;;;8.01;45.08
47104;BME280;32853;52.164;5.400;2023-02-28T11:35:49;103128.41;;;8.39;44.93
47104;BME280;32853;52.164;5.400;2023-02-28T11:38:34;103126.78;;;8.58;44.65
47104;BME280;32853;52.164;5.400;2023-02-28T11:41:08;103120.66;;;8.50;45.08
47104;BME280;32853;52.164;5.400;2023-02-28T11:46:52;103119.72;;;8.41;44.32
47104;BME280;32853;52.164;5.400;2023-02-28T11:49:40;103113.81;;;8.74;45.01
47104;BME280;32853;52.164;5.400;2023-02-28T11:52:29;103111.94;;;8.48;43.78
47104;BME280;32853;52.164;5.400;2023-02-28T12:05:39;103110.50;;;9.23;44.34
47104;BME280;32853;52.164;5.400;2023-02-28T12:11:10;103104.44;;;9.64;42.84
47104;BME280;32853;52.164;5.400;2023-02-28T12:17:03;103096.56;;;9.97;44.24
47104;BME280;32853;52.164;5.400;2023-02-28T12:28:16;103090.50;;;9.98;42.44
47104;BME280;32853;52.164;5.400;2023-02-28T12:30:58;103074.81;;;9.75;42.57
47104;BME280;32853;52.164;5.400;2023-02-28T12:33:30;103071.38;;;9.66;41.90
47104;BME280;32853;52.164;5.400;2023-02-28T12:35:58;103087.03;;;9.78;41.47
47104;BME280;32853;52.164;5.400;2023-02-28T12:38:30;103031.28;;;9.16;41.33
47104;BME280;32853;52.164;5.400;2023-02-28T12:41:11;103082.66;;;9.94;42.21
47104;BME280;32853;52.164;5.400;2023-02-28T12:43:50;103077.44;;;9.84;41.42
47104;BME280;32853;52.164;5.400;2023-02-28T12:46:23;103047.81;;;9.75;41.60
47104;BME280;32853;52.164;5.400;2023-02-28T12:48:56;103074.78;;;9.00;41.17
47104;BME280;32853;52.164;5.400;2023-02-28T12:51:26;103043.50;;;9.32;41.49
47104;BME280;32853;52.164;5.400;2023-02-28T12:54:16;103068.66;;;10.17;41.75
47104;BME280;32853;52.164;5.400;2023-02-28T12:59:52;103065.22;;;10.02;40.59
47104;BME280;32853;52.164;5.400;2023-02-28T13:08:48;103053.88;;;10.09;40.25
47104;BME280;32853;52.164;5.400;2023-02-28T13:11:47;103066.06;;;10.13;39.46
47104;BME280;32853;52.164;5.400;2023-02-28T13:14:36;103053.03;;;9.75;39.53
47104;BME280;32853;52.164;5.400;2023-02-28T13:19:58;103040.00;;;9.58;39.71
47104;BME280;32853;52.164;5.400;2023-02-28T13:23:03;103052.19;;;9.76;40.21
47104;BME280;32853;52.164;5.400;2023-02-28T13:27:58;103025.19;;;9.29;40.04
47104;BME280;32853;52.164;5.400;2023-02-28T13:35:44;103053.81;;;10.36;39.82
47104;BME280;32853;52.164;5.400;2023-02-28T13:38:17;102994.47;;;10.47;39.40
47104;BME280;32853;52.164;5.400;2023-02-28T13:40:48;102997.94;;;10.54;38.97
47104;BME280;32853;52.164;5.400;2023-02-28T13:43:18;103002.47;;;10.03;38.48
47104;BME280;32853;52.164;5.400;2023-02-28T13:46:08;103039.91;;;10.33;39.13
47104;BME280;32853;52.164;5.400;2023-02-28T13:48:39;103029.47;;;10.11;38.79
47104;BME280;32853;52.164;5.400;2023-02-28T13:54:34;103028.44;;;10.58;38.46
47104;BME280;32853;52.164;5.400;2023-02-28T13:57:44;103020.34;;;10.96;39.86
47104;BME280;32853;52.164;5.400;2023-02-28T14:03:36;103020.47;;;10.80;39.82
47104;BME280;32853;52.164;5.400;2023-02-28T14:06:27;103013.72;;;10.36;38.67
47104;BME280;32853;52.164;5.400;2023-02-28T14:09:02;103013.75;;;10.25;38.69
47104;BME280;32853;52.164;5.400;2023-02-28T14:11:35;103015.59;;;9.80;38.58
47104;BME280;32853;52.164;5.400;2023-02-28T14:14:01;102998.16;;;9.92;38.44
47104;BME280;32853;52.164;5.400;2023-02-28T14:16:44;103013.00;;;9.51;38.26
47104;BME280;32853;52.164;5.400;2023-02-28T14:19:13;103004.28;;;9.63;39.15
47104;BME280;32853;52.164;5.400;2023-02-28T14:27:12;103011.22;;;9.92;38.55
47104;BME280;32853;52.164;5.400;2023-02-28T14:32:47;103000.72;;;10.07;39.05
47104;BME280;32853;52.164;5.400;2023-02-28T14:38:29;102957.22;;;9.75;39.20
47104;BME280;32853;52.164;5.400;2023-02-28T14:41:12;102986.00;;;9.68;39.37
47104;BME280;32853;52.164;5.400;2023-02-28T14:43:57;103000.78;;;9.72;38.79
47104;BME280;32853;52.164;5.400;2023-02-28T14:46:40;102916.41;;;9.18;38.23
47104;BME280;32853;52.164;5.400;2023-02-28T14:49:13;102946.84;;;9.49;39.51
47104;BME280;32853;52.164;5.400;2023-02-28T14:51:40;102955.50;;;9.80;38.98
47104;BME280;32853;52.164;5.400;2023-02-28T14:54:07;103001.56;;;10.15;38.96
47104;BME280;32853;52.164;5.400;2023-02-28T14:56:37;102990.22;;;10.14;38.66
47104;BME280;32853;52.164;5.400;2023-02-28T14:59:05;102990.13;;;10.48;38.82
47104;BME280;32853;52.164;5.400;2023-02-28T15:01:31;102997.16;;;10.37;39.28
47104;BME280;32853;52.164;5.400;2023-02-28T15:04:06;102949.41;;;9.78;39.04
47104;BME280;32853;52.164;5.400;2023-02-28T15:06:32;102935.53;;;9.56;38.72